Time;durP1;ratioP1;P1;durP2;ratioP2;P2;SDS_P1;SDS_P2;PMS_P1;PMS_P2;Temp;Humidity;BMP_temperature;BMP_pressure;BME280_temperature;BME280_humidity;BME280_pressure;Samples;Min_cycle;Max_cycle;Signal;HPM_P1;HPM_P2
2023/05/18 00:02:25;;;;;;;10.18;2.42;;;;;;;9.65;79.97;102685.69;5298054;28;20026;-68
2023/05/18 00:04:56;;;;;;;12.25;2.53;;;;;;;9.59;81.21;102675.56;5296956;28;20082;-67
2023/05/18 00:07:32;;;;;;;10.07;2.53;;;;;;;9.60;79.61;102686.84;5296847;28;20241;-67
2023/05/18 00:10:05;;;;;;;5.53;2.65;;;;;;;9.55;81.93;102688.88;5297530;28;20111;-67
2023/05/18 00:12:36;;;;;;;8.40;2.33;;;;;;;9.48;81.54;102675.25;5293539;28;20027;-68
2023/05/18 00:15:09;;;;;;;11.93;2.50;;;;;;;9.49;81.82;102679.56;5297169;28;20489;-68
2023/05/18 00:17:41;;;;;;;9.07;2.83;;;;;;;9.50;81.32;102687.31;5297673;28;20024;-68
2023/05/18 00:20:12;;;;;;;10.55;3.22;;;;;;;9.40;81.34;102688.72;5293913;28;20031;-68
2023/05/18 00:22:43;;;;;;;8.38;2.15;;;;;;;9.50;82.48;102683.84;5297420;28;20032;-68
2023/05/18 00:25:15;;;;;;;10.55;2.80;;;;;;;9.53;81.38;102691.56;5296433;28;20391;-68
2023/05/18 00:27:48;;;;;;;6.40;2.63;;;;;;;9.41;81.91;102685.16;5297406;28;20629;-68
2023/05/18 00:30:20;;;;;;;9.38;2.90;;;;;;;9.40;82.18;102675.63;5296470;28;20023;-67
2023/05/18 00:32:51;;;;;;;7.07;2.15;;;;;;;9.35;81.23;102684.63;5298553;28;20111;-68
2023/05/18 00:35:22;;;;;;;7.80;2.17;;;;;;;9.32;81.80;102687.38;5296975;28;20413;-68
2023/05/18 00:37:54;;;;;;;7.88;2.38;;;;;;;9.29;81.88;102696.25;5295092;28;20465;-68
2023/05/18 00:40:27;;;;;;;6.55;2.22;;;;;;;9.32;81.49;102692.63;5296649;28;20055;-68
2023/05/18 00:42:59;;;;;;;7.45;2.30;;;;;;;9.20;83.11;102694.91;5298431;28;20074;-68
2023/05/18 00:45:30;;;;;;;7.82;2.75;;;;;;;9.22;82.85;102697.47;5296662;28;20070;-68
2023/05/18 00:48:02;;;;;;;8.23;2.88;;;;;;;9.21;83.37;102696.63;5295677;28;20070;-68
2023/05/18 00:50:34;;;;;;;9.60;2.90;;;;;;;9.21;82.15;102698.41;5297137;28;20075;-68
2023/05/18 00:53:05;;;;;;;7.55;2.45;;;;;;;9.16;82.92;102697.78;5297383;28;20059;-68
2023/05/18 00:55:37;;;;;;;7.72;2.40;;;;;;;9.09;84.64;102693.75;5294135;28;20027;-68
2023/05/18 00:58:09;;;;;;;6.35;2.50;;;;;;;9.03;84.21;102681.84;5297597;28;20067;-67
2023/05/18 01:00:40;;;;;;;10.95;2.83;;;;;;;9.13;84.05;102688.31;5296189;28;20111;-68
2023/05/18 01:03:14;;;;;;;9.23;2.50;;;;;;;9.04;83.73;102696.59;5295514;28;20115;-68
2023/05/18 01:05:48;;;;;;;8.50;2.67;;;;;;;9.08;82.74;102694.69;5297234;28;20063;-68
2023/05/18 01:08:21;;;;;;;9.27;3.08;;;;;;;9.00;83.91;102700.28;5296924;28;20153;-68
2023/05/18 01:10:59;;;;;;;8.07;2.42;;;;;;;9.00;84.17;102701.13;5291784;28;20027;-67
2023/05/18 01:13:50;;;;;;;7.82;2.65;;;;;;;9.10;82.98;102692.88;5295802;28;20032;-68
2023/05/18 01:16:26;;;;;;;7.25;2.78;;;;;;;9.07;85.81;102698.22;5297723;28;20025;-68
2023/05/18 01:19:17;;;;;;;5.80;2.28;;;;;;;9.08;84.57;102698.16;5295188;28;20031;-67
2023/05/18 01:22:07;;;;;;;6.75;2.20;;;;;;;8.85;84.57;102704.47;5296602;28;20023;-67
2023/05/18 01:24:47;;;;;;;5.57;2.40;;;;;;;8.93;84.41;102698.88;5296413;28;20119;-67
2023/05/18 01:27:23;;;;;;;6.65;2.42;;;;;;;8.85;84.78;102698.41;5308213;22;20050;-67
2023/05/18 01:29:55;;;;;;;9.23;2.60;;;;;;;8.83;83.74;102706.34;5268647;28;20066;-67
2023/05/18 01:32:26;;;;;;;9.13;2.72;;;;;;;8.91;83.51;102704.22;5274019;28;20024;-67
2023/05/18 01:34:57;;;;;;;9.05;2.50;;;;;;;8.94;84.04;102693.59;5276055;28;20036;-67
2023/05/18 01:37:28;;;;;;;9.18;3.10;;;;;;;8.81;84.65;102704.72;5276017;28;20032;-67
2023/05/18 01:40:00;;;;;;;8.80;3.00;;;;;;;8.76;85.70;102699.72;5276046;28;20023;-67
2023/05/18 01:42:35;;;;;;;7.90;2.65;;;;;;;8.99;85.75;102702.06;5275605;28;20111;-67
2023/05/18 01:45:13;;;;;;;10.30;2.85;;;;;;;8.82;85.02;102707.25;5275827;28;20400;-67
2023/05/18 01:47:46;;;;;;;4.85;2.45;;;;;;;8.81;86.96;102699.50;5274096;28;20032;-67
2023/05/18 01:50:25;;;;;;;11.88;2.90;;;;;;;8.77;86.83;102701.41;5276602;28;20021;-67
2023/05/18 01:53:05;;;;;;;9.20;2.80;;;;;;;8.72;86.17;102706.00;5276940;28;20074;-67
2023/05/18 01:55:39;;;;;;;9.63;2.78;;;;;;;8.67;87.34;102703.59;5276383;28;20032;-67
2023/05/18 01:58:12;;;;;;;7.65;2.42;;;;;;;8.57;86.15;102699.72;5273350;28;20382;-67
2023/05/18 02:00:45;;;;;;;6.63;2.70;;;;;;;8.61;85.63;102703.03;5275658;28;20611;-67
2023/05/18 02:03:16;;;;;;;;;;;;;;;9.30;79.91;102702.31;5276260;28;20059;-67
2023/05/18 02:05:47;;;;;;;7.93;2.60;;;;;;;8.70;85.72;102694.75;5276487;28;19963;-67
2023/05/18 02:08:19;;;;;;;11.00;2.67;;;;;;;8.61;85.43;102695.22;5276444;28;20645;-67
2023/05/18 02:10:51;;;;;;;9.70;2.90;;;;;;;8.51;86.17;102693.00;5274976;28;20047;-67
2023/05/18 02:13:22;;;;;;;7.75;2.63;;;;;;;8.48;87.18;102694.91;5276302;28;20028;-67
2023/05/18 02:15:53;;;;;;;10.85;2.70;;;;;;;8.46;87.36;102697.59;5275430;28;20119;-67
2023/05/18 02:18:25;;;;;;;6.90;2.80;;;;;;;8.55;88.97;102691.09;5275231;28;20029;-67
2023/05/18 02:21:00;;;;;;;9.35;3.20;;;;;;;8.60;89.82;102696.09;5274529;28;20025;-67
2023/05/18 02:23:31;;;;;;;5.95;2.72;;;;;;;8.47;86.29;102686.22;5275979;28;20032;-67
2023/05/18 02:26:02;;;;;;;8.02;3.38;;;;;;;8.41;87.17;102694.38;5276144;28;20105;-67
2023/05/18 02:28:33;;;;;;;9.35;3.22;;;;;;;8.39;87.99;102682.28;5275569;28;20127;-67
2023/05/18 02:31:10;;;;;;;11.80;2.83;;;;;;;8.47;88.51;102680.16;5274733;28;20106;-67
2023/05/18 02:33:42;;;;;;;9.00;2.70;;;;;;;8.44;89.47;102683.75;5275563;28;20067;-67
2023/05/18 02:36:13;;;;;;;8.88;2.85;;;;;;;8.39;88.38;102679.69;5276509;28;20031;-67
2023/05/18 02:38:45;;;;;;;6.10;2.90;;;;;;;8.42;89.19;102685.63;5274246;28;20032;-67
2023/05/18 02:41:16;;;;;;;6.45;2.75;;;;;;;8.40;88.81;102679.59;5275721;28;20024;-67
2023/05/18 02:43:47;;;;;;;6.25;2.63;;;;;;;8.36;87.28;102672.78;5275786;28;20031;-67
2023/05/18 02:46:18;;;;;;;6.03;2.65;;;;;;;8.34;89.08;102677.25;5274513;28;20016;-67
2023/05/18 02:48:50;;;;;;;7.25;2.83;;;;;;;8.43;90.07;102674.25;5274630;28;20024;-67
2023/05/18 02:51:22;;;;;;;6.65;2.78;;;;;;;8.40;88.05;102679.59;5275062;28;20091;-67
2023/05/18 02:53:53;;;;;;;8.25;2.90;;;;;;;8.31;89.41;102674.78;5274741;28;20056;-67
2023/05/18 02:56:24;;;;;;;7.90;3.10;;;;;;;8.40;89.37;102679.59;5274199;28;20032;-67
2023/05/18 02:58:57;;;;;;;6.82;2.65;;;;;;;8.27;88.50;102671.47;5255163;28;20039;-66
2023/05/18 03:01:28;;;;;;;5.53;2.78;;;;;;;8.22;89.59;102681.28;5254387;28;20071;-67
2023/05/18 03:04:00;;;;;;;6.88;3.00;;;;;;;8.20;90.37;102675.25;5273024;28;20048;-67
2023/05/18 03:06:31;;;;;;;7.53;2.85;;;;;;;8.23;89.29;102669.06;5272549;28;20044;-67
2023/05/18 03:09:02;;;;;;;9.90;3.20;;;;;;;8.29;89.11;102685.28;5274727;28;20021;-67
2023/05/18 03:11:34;;;;;;;7.57;2.85;;;;;;;8.13;89.71;102678.22;5272943;28;20448;-67
2023/05/18 03:14:05;;;;;;;8.98;3.25;;;;;;;8.24;89.68;102681.19;5274601;28;20028;-67
2023/05/18 03:16:37;;;;;;;6.82;2.70;;;;;;;8.18;91.36;102681.47;5275458;28;20496;-67
2023/05/18 03:19:08;;;;;;;7.47;2.72;;;;;;;8.17;91.18;102671.94;5275794;28;20121;-67
2023/05/18 03:21:40;;;;;;;9.68;2.90;;;;;;;8.13;91.17;102676.44;5273443;28;20123;-67
2023/05/18 03:24:14;;;;;;;5.75;2.90;;;;;;;8.09;90.45;102679.28;5275528;28;20040;-67
2023/05/18 03:26:46;;;;;;;7.55;3.50;;;;;;;8.02;90.09;102681.31;5275329;28;20154;-67
2023/05/18 03:29:17;;;;;;;8.68;2.88;;;;;;;8.04;91.91;102667.28;5255880;28;20128;-67
2023/05/18 03:31:48;;;;;;;6.40;2.97;;;;;;;8.00;91.53;102672.72;5254223;28;20037;-67
2023/05/18 03:34:20;;;;;;;8.05;3.13;;;;;;;7.96;91.74;102679.84;5255163;28;20033;-67
2023/05/18 03:36:53;;;;;;;10.35;3.22;;;;;;;7.95;91.88;102678.13;5254271;28;20021;-67
2023/05/18 03:39:25;;;;;;;6.85;2.67;;;;;;;8.05;91.44;102678.56;5254846;28;20021;-67
2023/05/18 03:41:56;;;;;;;7.63;2.47;;;;;;;7.97;89.74;102680.69;5254543;28;20370;-67
2023/05/18 03:44:27;;;;;;;7.65;2.90;;;;;;;7.99;91.95;102671.88;5255249;28;20432;-67
2023/05/18 03:46:58;;;;;;;9.05;3.25;;;;;;;7.94;91.10;102672.97;5253730;28;20386;-67
2023/05/18 03:49:33;;;;;;;7.80;2.90;;;;;;;8.03;92.66;102680.38;5234974;28;20390;-67
2023/05/18 03:52:04;;;;;;;9.73;3.08;;;;;;;7.88;90.57;102676.72;5235241;28;20036;-67
2023/05/18 03:54:36;;;;;;;6.88;2.83;;;;;;;7.88;91.35;102674.13;5254925;28;20029;-67
2023/05/18 03:57:07;;;;;;;10.48;3.63;;;;;;;7.86;91.87;102685.53;5253782;28;20362;-67
2023/05/18 03:59:38;;;;;;;6.55;3.28;;;;;;;7.94;94.90;102679.03;5256926;28;20123;-67
2023/05/18 04:02:10;;;;;;;7.03;2.88;;;;;;;7.97;93.93;102678.06;5258626;28;20856;-67
2023/05/18 04:04:44;;;;;;;6.22;2.72;;;;;;;7.94;93.30;102684.25;5257673;28;20047;-67
2023/05/18 04:07:16;;;;;;;9.38;3.70;;;;;;;7.84;92.27;102683.00;5257617;28;20036;-67
2023/05/18 04:09:48;;;;;;;10.18;3.15;;;;;;;7.87;91.44;102695.03;5258695;28;20020;-67
2023/05/18 04:12:19;;;;;;;7.78;2.88;;;;;;;7.86;92.07;102693.34;5256115;28;20460;-67
2023/05/18 04:14:52;;;;;;;10.40;3.28;;;;;;;7.85;92.58;102696.88;5258215;28;20017;-67
2023/05/18 04:17:24;;;;;;;11.05;3.10;;;;;;;7.88;92.97;102699.34;5258250;28;20383;-67
2023/05/18 04:19:55;;;;;;;10.25;3.58;;;;;;;7.90;92.55;102707.97;5257321;28;20029;-67
2023/05/18 04:22:29;;;;;;;8.07;3.05;;;;;;;7.94;92.60;102706.91;5257761;28;20033;-67
2023/05/18 04:25:02;;;;;;;9.02;3.33;;;;;;;7.92;94.24;102701.78;5258153;28;20412;-68
2023/05/18 04:27:33;;;;;;;7.72;2.70;;;;;;;7.94;91.87;102706.91;5257023;28;20723;-67
2023/05/18 04:30:07;;;;;;;11.65;4.05;;;;;;;7.96;92.90;102705.94;5256097;28;20070;-67
2023/05/18 04:32:41;;;;;;;8.40;3.28;;;;;;;7.93;92.63;102706.06;5255733;28;20784;-67
2023/05/18 04:35:13;;;;;;;10.02;3.08;;;;;;;7.98;93.38;102700.63;5257035;28;20502;-67
2023/05/18 04:37:44;;;;;;;7.53;3.08;;;;;;;7.97;93.22;102709.38;5256850;28;20021;-67
2023/05/18 04:40:16;;;;;;;8.70;3.60;;;;;;;7.99;92.88;102711.03;5255753;28;20098;-67
2023/05/18 04:42:47;;;;;;;9.63;2.97;;;;;;;8.04;93.96;102711.66;5256782;28;20082;-67
2023/05/18 04:45:20;;;;;;;8.77;3.13;;;;;;;8.10;94.52;102710.53;5256103;28;20029;-67
2023/05/18 04:47:52;;;;;;;8.45;3.80;;;;;;;8.11;93.19;102712.25;5257499;28;20028;-68
2023/05/18 04:50:23;;;;;;;7.32;3.67;;;;;;;8.13;93.31;102712.16;5236027;28;20028;-67
2023/05/18 04:52:56;;;;;;;8.38;2.92;;;;;;;8.19;92.73;102719.72;5236410;28;20028;-67
2023/05/18 04:55:29;;;;;;;8.93;3.20;;;;;;;8.21;91.73;102718.72;5235584;28;20028;-67
2023/05/18 04:58:01;;;;;;;9.70;3.30;;;;;;;8.17;92.02;102716.31;5250001;28;20029;-67
2023/05/18 05:00:33;;;;;;;9.18;3.97;;;;;;;8.20;92.06;102718.81;5255875;28;20029;-67
2023/05/18 05:03:05;;;;;;;8.07;3.55;;;;;;;8.20;91.62;102717.03;5234325;28;20379;-67
2023/05/18 05:05:36;;;;;;;11.55;3.58;;;;;;;8.19;91.68;102717.97;5251999;28;20071;-67
2023/05/18 05:08:07;;;;;;;7.97;3.10;;;;;;;8.25;90.86;102722.91;5256483;28;20032;-67
2023/05/18 05:10:38;;;;;;;7.20;3.17;;;;;;;8.32;89.56;102715.63;5255180;28;20481;-67
2023/05/18 05:13:10;;;;;;;10.18;3.45;;;;;;;8.39;93.10;102722.31;5255888;28;20032;-67
2023/05/18 05:15:41;;;;;;;10.50;3.60;;;;;;;8.40;91.19;102717.94;5255676;28;20059;-67
2023/05/18 05:18:12;;;;;;;14.23;3.65;;;;;;;8.41;89.35;102717.88;5253433;28;20472;-67
2023/05/18 05:20:43;;;;;;;11.18;4.28;;;;;;;8.52;89.93;102723.47;5250671;28;20044;-67
2023/05/18 05:23:15;;;;;;;9.00;3.53;;;;;;;8.52;89.37;102723.47;5255201;28;20079;-67
2023/05/18 05:25:46;;;;;;;14.18;4.38;;;;;;;8.57;90.85;102719.78;5256472;28;20067;-67
2023/05/18 05:28:17;;;;;;;11.23;3.78;;;;;;;8.50;89.85;102716.59;5264886;28;20040;-67
2023/05/18 05:30:48;;;;;;;12.35;3.45;;;;;;;8.59;90.36;102725.78;5275762;28;20029;-67
2023/05/18 05:33:20;;;;;;;8.20;4.00;;;;;;;8.59;90.02;102721.38;5276861;28;20024;-67
2023/05/18 05:35:51;;;;;;;11.20;3.88;;;;;;;8.66;89.22;102729.78;5252559;28;20024;-67
2023/05/18 05:38:22;;;;;;;9.48;4.30;;;;;;;8.75;90.42;102727.63;5276320;28;20123;-67
2023/05/18 05:40:54;;;;;;;7.97;3.67;;;;;;;8.76;89.07;102721.47;5277241;28;20066;-67
2023/05/18 05:43:25;;;;;;;8.45;3.65;;;;;;;8.83;88.48;102727.25;5275333;28;20040;-67
2023/05/18 05:45:56;;;;;;;9.55;4.57;;;;;;;8.83;86.85;102727.25;5277019;28;20017;-67
2023/05/18 05:48:28;;;;;;;9.48;4.18;;;;;;;8.85;85.30;102729.78;5255519;28;20034;-67
2023/05/18 05:50:59;;;;;;;11.85;4.65;;;;;;;8.90;84.06;102726.03;5276148;28;20137;-67
2023/05/18 05:53:30;;;;;;;15.25;4.10;;;;;;;8.95;85.15;102725.81;5275760;28;20028;-67
2023/05/18 05:56:02;;;;;;;12.90;3.83;;;;;;;9.01;85.64;102723.72;5275867;28;20021;-67
2023/05/18 05:58:33;;;;;;;7.25;3.75;;;;;;;9.07;82.95;102730.44;5255209;28;20021;-67
2023/05/18 06:01:04;;;;;;;9.40;4.10;;;;;;;9.18;85.05;102724.72;5274628;28;20074;-67
2023/05/18 06:03:36;;;;;;;8.45;4.20;;;;;;;9.21;81.73;102729.78;5253343;28;20028;-67
2023/05/18 06:06:07;;;;;;;9.55;3.78;;;;;;;9.19;81.89;102729.00;5275441;28;20040;-67
2023/05/18 06:08:38;;;;;;;9.93;4.28;;;;;;;9.27;80.37;102732.09;5275477;28;20032;-67
2023/05/18 06:11:10;;;;;;;11.30;3.97;;;;;;;9.36;81.05;102728.19;5274442;28;20047;-67
2023/05/18 06:13:41;;;;;;;10.02;4.45;;;;;;;9.39;81.23;102726.25;5274719;28;20492;-67
2023/05/18 06:16:13;;;;;;;9.25;3.72;;;;;;;9.52;80.45;102726.50;5275353;28;20055;-67
2023/05/18 06:18:44;;;;;;;10.13;3.67;;;;;;;9.60;79.80;102733.97;5275246;28;20443;-67
2023/05/18 06:21:15;;;;;;;9.18;3.70;;;;;;;9.66;79.36;102733.63;5274832;28;20369;-67
2023/05/18 06:23:47;;;;;;;11.55;3.97;;;;;;;9.76;78.47;102732.25;5274226;28;20032;-67
2023/05/18 06:26:18;;;;;;;9.05;4.05;;;;;;;9.81;79.19;102737.25;5275559;28;20038;-67
2023/05/18 06:28:49;;;;;;;9.95;4.40;;;;;;;9.85;77.29;102733.53;5275102;28;20071;-67
2023/05/18 06:31:21;;;;;;;8.73;4.20;;;;;;;9.95;75.24;102729.53;5274379;28;20013;-67
2023/05/18 06:33:52;;;;;;;9.73;4.25;;;;;;;10.08;74.86;102729.75;5275755;28;20043;-67
2023/05/18 06:36:23;;;;;;;11.18;4.38;;;;;;;10.22;72.46;102737.69;5274206;28;20028;-67
2023/05/18 06:38:54;;;;;;;10.35;4.35;;;;;;;10.40;74.73;102742.00;5272924;28;20032;-67
2023/05/18 06:41:27;;;;;;;10.38;3.63;;;;;;;10.47;72.31;102738.13;5274437;28;20059;-67
2023/05/18 06:44:00;;;;;;;11.70;3.90;;;;;;;10.52;70.92;102742.28;5274413;28;20494;-67
2023/05/18 06:46:31;;;;;;;;;;;;;;;11.09;68.73;102746.06;5273776;28;20087;-67
2023/05/18 06:49:03;;;;;;;8.13;3.50;;;;;;;10.81;70.01;102744.16;5272678;28;20366;-67
2023/05/18 06:51:34;;;;;;;9.82;4.07;;;;;;;10.72;67.59;102742.03;5273072;28;20454;-67
2023/05/18 06:54:06;;;;;;;13.20;3.85;;;;;;;10.84;67.67;102740.50;5275850;28;20124;-67
2023/05/18 06:56:37;;;;;;;8.60;4.05;;;;;;;10.92;67.67;102738.31;5273691;28;20031;-67
2023/05/18 06:59:08;;;;;;;6.68;3.25;;;;;;;10.98;66.12;102742.34;5256417;28;20044;-67
2023/05/18 07:01:40;;;;;;;8.52;3.85;;;;;;;11.27;67.96;102740.69;5274169;28;20039;-67
2023/05/18 07:04:11;;;;;;;8.60;3.65;;;;;;;11.47;69.36;102739.53;5274224;28;20033;-67
2023/05/18 07:06:42;;;;;;;12.77;4.22;;;;;;;11.55;65.84;102746.03;5274723;28;20028;-67
2023/05/18 07:09:14;;;;;;;9.18;3.75;;;;;;;11.65;64.85;102747.19;5274974;28;20024;-67
2023/05/18 07:11:45;;;;;;;13.45;4.35;;;;;;;11.74;62.99;102758.06;5272829;28;20028;-67
2023/05/18 07:14:16;;;;;;;12.23;3.88;;;;;;;11.86;62.75;102752.16;5274724;28;20032;-67
2023/05/18 07:16:48;;;;;;;10.80;4.00;;;;;;;12.01;61.50;102753.84;5274400;28;21092;-67
2023/05/18 07:19:19;;;;;;;11.73;4.03;;;;;;;12.17;63.32;102753.75;5272971;28;20036;-67
2023/05/18 07:21:51;;;;;;;10.05;3.97;;;;;;;12.28;63.99;102753.09;5274550;28;20062;-67
2023/05/18 07:24:22;;;;;;;10.93;4.30;;;;;;;12.19;61.08;102751.88;5275223;28;20028;-67
2023/05/18 07:26:53;;;;;;;8.20;4.22;;;;;;;12.33;61.83;102761.53;5273687;28;20111;-67
2023/05/18 07:29:25;;;;;;;11.60;4.03;;;;;;;12.47;61.51;102779.09;5256187;28;20060;-68
2023/05/18 07:31:56;;;;;;;9.30;3.70;;;;;;;12.41;57.95;102754.03;5253070;28;20110;-67
2023/05/18 07:34:27;;;;;;;10.13;4.40;;;;;;;12.53;60.31;102755.03;5257803;28;20064;-68
2023/05/18 07:36:58;;;;;;;8.68;4.10;;;;;;;12.66;57.83;102766.50;5256816;28;20082;-67
2023/05/18 07:39:30;;;;;;;9.63;4.00;;;;;;;12.82;58.92;102764.56;5258032;28;20025;-67
2023/05/18 07:42:01;;;;;;;10.25;3.97;;;;;;;13.01;58.81;102773.91;5258970;28;20031;-67
2023/05/18 07:44:32;;;;;;;10.05;4.07;;;;;;;13.02;56.65;102771.19;5258237;28;20024;-67
2023/05/18 07:47:04;;;;;;;11.30;3.85;;;;;;;13.15;57.02;102772.09;5237127;28;20033;-67
2023/05/18 07:49:35;;;;;;;10.73;4.18;;;;;;;13.31;56.15;102769.31;5255815;28;20033;-68
2023/05/18 07:52:07;;;;;;;10.45;3.85;;;;;;;13.30;55.32;102772.91;5258116;28;20551;-68
2023/05/18 07:54:38;;;;;;;9.25;3.50;;;;;;;13.51;55.98;102775.06;5258152;28;20090;-68
2023/05/18 07:57:09;;;;;;;11.73;3.60;;;;;;;13.49;54.75;102782.22;5257669;28;20108;-68
2023/05/18 07:59:40;;;;;;;8.85;3.85;;;;;;;13.66;55.76;102779.31;5258485;28;20037;-68
2023/05/18 08:02:12;;;;;;;8.07;3.80;;;;;;;13.83;55.78;102772.91;5256166;28;20551;-68
2023/05/18 08:04:43;;;;;;;10.40;3.40;;;;;;;13.91;53.33;102781.13;5257593;28;20025;-68
2023/05/18 08:07:17;;;;;;;9.38;4.13;;;;;;;13.98;54.22;102776.25;5258125;28;20028;-68
2023/05/18 08:09:48;;;;;;;7.47;3.42;;;;;;;14.16;53.94;102780.28;5257656;28;20026;-68
2023/05/18 08:12:19;;;;;;;8.77;3.80;;;;;;;14.19;52.85;102780.06;5254956;28;20021;-68
2023/05/18 08:14:51;;;;;;;11.25;4.68;;;;;;;14.29;51.13;102778.50;5258185;28;20025;-68
2023/05/18 08:17:22;;;;;;;11.10;3.85;;;;;;;14.23;52.07;102776.28;5257876;28;20537;-68
2023/05/18 08:19:54;;;;;;;9.98;3.67;;;;;;;14.44;51.10;102786.28;5256374;28;20036;-68
2023/05/18 08:22:25;;;;;;;8.73;3.40;;;;;;;14.33;50.27;102779.97;5256513;28;20020;-68
2023/05/18 08:24:59;;;;;;;10.00;3.63;;;;;;;14.46;52.99;102784.38;5256473;28;20490;-68
2023/05/18 08:27:30;;;;;;;11.30;4.22;;;;;;;14.51;51.06;102777.03;5259849;28;20021;-68
2023/05/18 08:30:02;;;;;;;13.85;4.05;;;;;;;14.64;52.26;102764.63;5277307;28;20025;-68
2023/05/18 08:32:35;;;;;;;9.55;3.13;;;;;;;14.76;49.65;102771.66;5277280;28;20032;-68
2023/05/18 08:35:08;;;;;;;13.05;3.90;;;;;;;14.88;50.18;102769.09;5276707;28;20024;-68
2023/05/18 08:37:40;;;;;;;7.07;3.20;;;;;;;15.01;49.04;102769.91;5278122;28;20107;-68
2023/05/18 08:40:12;;;;;;;12.57;3.88;;;;;;;15.16;49.17;102754.75;5276618;28;20020;-68
2023/05/18 08:42:52;;;;;;;9.68;3.58;;;;;;;15.42;48.59;102758.91;5277451;28;20048;-68
2023/05/18 08:45:34;;;;;;;9.70;3.13;;;;;;;15.46;47.23;102757.72;5276433;28;20032;-68
2023/05/18 08:48:06;;;;;;;9.32;3.25;;;;;;;15.43;48.08;102747.38;5277082;28;20032;-68
2023/05/18 08:50:40;;;;;;;10.38;3.65;;;;;;;15.57;45.58;102754.28;5278192;28;20025;-68
2023/05/18 08:53:12;;;;;;;6.22;3.30;;;;;;;15.50;46.50;102755.69;5276902;28;20021;-68
2023/05/18 08:55:45;;;;;;;8.30;3.08;;;;;;;15.64;45.13;102755.47;5277836;28;20040;-68
2023/05/18 08:58:18;;;;;;;11.75;3.53;;;;;;;15.71;44.59;102746.16;5276857;28;20381;-68
2023/05/18 09:00:53;;;;;;;7.63;3.92;;;;;;;15.51;45.49;102754.75;5277415;28;20159;-68
2023/05/18 09:03:25;;;;;;;11.27;3.35;;;;;;;15.59;45.07;102752.34;5277713;28;20036;-68
2023/05/18 09:05:58;;;;;;;10.93;3.80;;;;;;;15.67;45.44;102742.06;5277493;28;20426;-68
2023/05/18 09:08:30;;;;;;;11.05;3.03;;;;;;;15.90;44.71;102736.81;5277522;28;20516;-68
2023/05/18 09:11:02;;;;;;;7.60;2.95;;;;;;;16.05;43.86;102744.41;5275853;28;20025;-68
2023/05/18 09:13:33;;;;;;;14.63;4.03;;;;;;;16.16;42.92;102740.09;5275737;28;20039;-68
2023/05/18 09:16:06;;;;;;;8.40;2.83;;;;;;;16.14;44.02;102742.00;5277179;28;20024;-68
2023/05/18 09:18:37;;;;;;;;;;;;;;;16.98;44.28;102738.78;5276368;28;20052;-68
2023/05/18 09:21:10;;;;;;;7.70;2.63;;;;;;;16.32;42.97;102729.97;5276094;28;19925;-68
2023/05/18 09:23:42;;;;;;;11.03;2.90;;;;;;;16.61;44.26;102735.59;5277521;28;20028;-68
2023/05/18 09:26:14;;;;;;;10.63;3.38;;;;;;;16.75;43.99;102738.00;5277555;28;20358;-68
2023/05/18 09:28:48;;;;;;;13.88;3.00;;;;;;;16.70;41.91;102740.13;5274910;28;20516;-68
2023/05/18 09:31:23;;;;;;;9.43;3.00;;;;;;;16.91;41.74;102739.41;5276997;28;20103;-68
2023/05/18 09:33:57;;;;;;;10.13;3.08;;;;;;;17.14;40.32;102732.22;5274708;28;20028;-68
2023/05/18 09:36:31;;;;;;;8.05;2.75;;;;;;;17.15;41.04;102731.22;5276585;28;20127;-68
2023/05/18 09:39:08;;;;;;;8.25;2.83;;;;;;;17.42;40.46;102725.44;5277004;28;20077;-68
2023/05/18 09:41:40;;;;;;;9.95;3.30;;;;;;;17.13;40.62;102728.72;5275791;28;20033;-68
2023/05/18 09:44:11;;;;;;;7.28;2.65;;;;;;;17.46;41.72;102733.03;5275701;28;20028;-68
2023/05/18 09:46:43;;;;;;;9.52;2.75;;;;;;;17.44;37.54;102727.00;5275845;28;20066;-68
2023/05/18 09:49:20;;;;;;;9.65;3.00;;;;;;;17.80;39.42;102730.16;5276175;28;20112;-68
2023/05/18 09:51:52;;;;;;;6.85;2.80;;;;;;;17.73;39.43;102735.13;5276193;28;20147;-68
2023/05/18 09:54:23;;;;;;;9.90;3.17;;;;;;;17.71;39.58;102729.13;5274226;28;20147;-68
2023/05/18 09:56:56;;;;;;;9.97;3.37;;;;;;;17.59;38.48;102724.88;5273418;28;20318;-68
2023/05/18 09:59:28;;;;;;;9.13;3.50;;;;;;;17.70;38.28;102724.78;5276288;28;20760;-68
2023/05/18 10:02:04;;;;;;;11.60;3.83;;;;;;;17.77;38.81;102713.69;5275612;28;20033;-68
2023/05/18 10:04:42;;;;;;;9.43;2.97;;;;;;;17.72;38.99;102712.22;5276438;28;20378;-69
2023/05/18 10:07:16;;;;;;;10.45;3.00;;;;;;;17.90;40.79;102717.81;5275862;28;20102;-68
2023/05/18 10:10:00;;;;;;;7.63;2.97;;;;;;;18.06;39.40;102719.13;5276442;28;20032;-69
2023/05/18 10:12:32;;;;;;;9.02;3.13;;;;;;;17.86;38.61;102715.56;5251865;28;20105;-68
2023/05/18 10:15:03;;;;;;;8.35;2.97;;;;;;;17.88;37.93;102711.81;5276406;28;20424;-68
2023/05/18 10:17:37;;;;;;;8.70;3.38;;;;;;;17.94;39.42;102705.94;5276132;28;20032;-68
2023/05/18 10:20:09;;;;;;;10.20;3.15;;;;;;;18.18;38.17;102708.31;5273695;28;20032;-68
2023/05/18 10:22:42;;;;;;;8.50;2.80;;;;;;;18.09;37.64;102709.09;5275321;28;20434;-68
2023/05/18 10:25:18;;;;;;;9.07;3.33;;;;;;;18.27;38.51;102704.00;5275951;28;20027;-68
2023/05/18 10:27:54;;;;;;;8.50;3.33;;;;;;;18.09;37.99;102703.78;5274427;28;20059;-68
2023/05/18 10:30:26;;;;;;;9.65;3.50;;;;;;;18.25;37.43;102697.97;5274230;28;20028;-69
2023/05/18 10:32:59;;;;;;;9.38;3.03;;;;;;;18.15;38.34;102708.56;5275879;28;20381;-69
2023/05/18 10:35:30;;;;;;;10.25;3.10;;;;;;;18.16;37.06;102704.94;5275203;28;20028;-69
2023/05/18 10:38:04;;;;;;;9.10;3.13;;;;;;;18.00;36.53;102707.25;5275235;28;20054;-69
2023/05/18 10:40:36;;;;;;;6.20;2.90;;;;;;;17.67;37.04;102701.19;5275637;28;20040;-69
2023/05/18 10:43:08;;;;;;;6.85;3.25;;;;;;;17.60;37.59;102685.94;5274504;28;20061;-68
2023/05/18 10:45:40;;;;;;;8.48;3.47;;;;;;;17.65;39.09;102697.84;5274523;28;20081;-68
2023/05/18 10:48:12;;;;;;;7.20;2.78;;;;;;;17.52;37.51;102694.53;5275450;28;20385;-69
2023/05/18 10:50:43;;;;;;;8.70;3.10;;;;;;;17.50;36.93;102689.38;5274680;28;20020;-69
2023/05/18 10:53:19;;;;;;;8.23;2.97;;;;;;;17.88;38.32;102689.72;5274034;28;20542;-69
2023/05/18 10:55:51;;;;;;;6.50;2.97;;;;;;;17.75;36.54;102696.09;5275689;28;20033;-69
2023/05/18 10:58:25;;;;;;;6.77;3.33;;;;;;;17.97;38.42;102692.44;5276117;28;20028;-69
2023/05/18 11:01:00;;;;;;;9.00;3.17;;;;;;;17.92;38.25;102692.00;5273876;28;20606;-69
2023/05/18 11:03:32;;;;;;;6.78;2.80;;;;;;;17.88;36.95;102690.59;5275399;28;20039;-69
2023/05/18 11:06:09;;;;;;;7.03;3.27;;;;;;;18.02;38.01;102684.06;5275941;28;20025;-70
2023/05/18 11:08:48;;;;;;;9.05;3.47;;;;;;;18.05;38.81;102685.63;5277220;28;20377;-69
2023/05/18 11:11:24;;;;;;;9.98;3.35;;;;;;;17.81;38.16;102688.59;5276252;28;20078;-69
2023/05/18 11:14:01;;;;;;;8.80;3.80;;;;;;;17.97;38.29;102683.66;5261221;28;20374;-69
2023/05/18 11:16:34;;;;;;;9.00;3.33;;;;;;;17.83;37.67;102687.47;5279318;28;20032;-69
2023/05/18 11:19:08;;;;;;;7.50;3.25;;;;;;;17.63;36.86;102681.22;5277166;28;20090;-69
2023/05/18 11:21:40;;;;;;;9.88;3.53;;;;;;;17.50;38.66;102677.94;5279589;28;20078;-69
2023/05/18 11:24:16;;;;;;;7.68;3.63;;;;;;;17.75;38.08;102674.06;5279569;28;20028;-69
2023/05/18 11:26:53;;;;;;;9.93;3.50;;;;;;;17.74;38.39;102675.84;5278538;28;20103;-69
2023/05/18 11:29:33;;;;;;;8.68;3.30;;;;;;;17.81;38.94;102678.84;5277856;28;20044;-69
2023/05/18 11:32:20;;;;;;;8.95;3.55;;;;;;;17.99;39.26;102674.59;5278531;28;20024;-69
2023/05/18 11:34:53;;;;;;;8.82;3.60;;;;;;;17.79;38.06;102677.28;5278715;28;20024;-69
2023/05/18 11:37:40;;;;;;;8.68;3.65;;;;;;;18.13;37.98;102669.88;5279338;28;20032;-68
2023/05/18 11:40:32;;;;;;;6.93;3.75;;;;;;;17.81;37.48;102678.00;5278828;28;20028;-69
2023/05/18 11:43:03;;;;;;;12.63;4.03;;;;;;;17.93;37.18;102669.81;5278494;28;20108;-69
2023/05/18 11:45:35;;;;;;;7.28;3.97;;;;;;;18.10;37.53;102672.78;5278773;28;20490;-69
2023/05/18 11:48:06;;;;;;;12.15;3.80;;;;;;;18.16;37.81;102661.66;5278165;28;20023;-69
2023/05/18 11:50:45;;;;;;;10.75;3.63;;;;;;;18.59;38.41;102663.94;5277885;28;20023;-69
2023/05/18 11:53:17;;;;;;;8.18;3.85;;;;;;;18.61;37.57;102651.38;5278119;28;20028;-69
2023/05/18 11:55:53;;;;;;;8.80;3.80;;;;;;;18.57;36.73;102655.31;5278198;28;20393;-69